Eships Agamid — ZDHS9 — position and weather

sailwx.info

Track history (hours):
 
Tides and Currents Weather Stations Pressure Air Temp Water Temp Dewpoint Dewpoint Depression Visibility Wind Speed Wind Dir Waves Ship Positions

Eships Agamid

Last reported at 2014-Sep-30 03:32 UTC. Time now 2014-Oct-01 10:21 UTC.
Position N 46°32' W 002°23'.

Length 128 m; draft 6 m.

Type: Tanker. MMSI: 236355000.

Date/timePositionNaut miles runAvg speedWind from/ knotsBaromVisibWave heightAir tempDewpointWater temp
2014-Sep-30 03:32N 46°32' W 002°23'1010.7
2014-Sep-30 02:33N 46°26' W 002°11'1110.9
2014-Sep-30 01:33N 46°19' W 001°59'1110.8
2014-Sep-30 00:33N 46°11' W 001°48'23 1.9
2014-Sep-29 12:11N 46°09' W 001°15'3 3.4
2014-Sep-29 11:25N 46°07' W 001°16'2411.8
2014-Sep-29 09:25N 46°12' W 001°49'1313.8
2014-Sep-29 08:30N 46°20' W 002°03'1313.8
2014-Sep-29 07:33N 46°29' W 002°17'9012.6
2014-Sep-29 00:28N 47°40' W 003°36'1010.8
2014-Sep-28 23:33N 47°43' W 003°22'1 1.1
2014-Sep-28 22:33N 47°44' W 003°21'0 0.0
2014-Sep-28 21:33N 47°44' W 003°21'0 0.0
2014-Sep-28 20:33N 47°44' W 003°21'0 0.0
2014-Sep-28 19:33N 47°44' W 003°21'0 0.0
2014-Sep-28 18:33N 47°44' W 003°21'0 0.0
2014-Sep-28 17:33N 47°44' W 003°21'0 0.0
2014-Sep-28 16:33N 47°44' W 003°21'0 0.0
2014-Sep-28 15:33N 47°44' W 003°21'0 0.0
2014-Sep-28 14:33N 47°44' W 003°21'0 0.0
2014-Sep-28 13:33N 47°44' W 003°21'0 0.0
2014-Sep-28 12:33N 47°44' W 003°21'0 0.0
2014-Sep-28 11:33N 47°44' W 003°21'0 0.0
2014-Sep-28 10:33N 47°44' W 003°21'0 0.0
2014-Sep-28 09:30N 47°44' W 003°21'0 0.0
2014-Sep-28 08:33N 47°44' W 003°21'0 0.0
2014-Sep-28 07:33N 47°44' W 003°21'0 0.0
2014-Sep-28 06:33N 47°44' W 003°21'3 2.7
2014-Sep-28 05:34N 47°41' W 003°23'2 1.9
2014-Sep-28 04:34N 47°40' W 003°25'0 0.0
2014-Sep-28 03:33N 47°40' W 003°25'0 0.0
2014-Sep-28 02:34N 47°40' W 003°25'0 0.0
2014-Sep-28 01:33N 47°40' W 003°25'0 0.0
2014-Sep-28 00:34N 47°40' W 003°25'0 0.0
2014-Sep-27 23:33N 47°40' W 003°25'0 0.0
2014-Sep-27 22:33N 47°40' W 003°25'0 0.0
2014-Sep-27 21:33N 47°40' W 003°25'0 0.0
2014-Sep-27 20:34N 47°40' W 003°25'3 3.2
2014-Sep-27 19:34N 47°40' W 003°30'61 5.6
2014-Sep-27 08:32N 47°18' W 002°05'  
2014-Sep-23 15:32N 47°44' W 003°21'0 0.0
2014-Sep-23 14:32N 47°44' W 003°21'0 0.0
2014-Sep-23 13:32N 47°44' W 003°21'0 0.0
2014-Sep-23 12:32N 47°44' W 003°21'0 0.0
2014-Sep-23 11:32N 47°44' W 003°21'0 0.0
2014-Sep-23 10:32N 47°44' W 003°21'0 0.0
2014-Sep-23 09:32N 47°44' W 003°21'0 0.0
2014-Sep-23 08:32N 47°44' W 003°21'0 0.0
2014-Sep-23 07:32N 47°44' W 003°21'0 0.0
2014-Sep-23 06:32N 47°44' W 003°21'0 0.0
2014-Sep-23 05:32N 47°44' W 003°21'0 0.0
2014-Sep-23 04:32N 47°44' W 003°21'0 0.0
2014-Sep-23 03:32N 47°44' W 003°21'0 0.0
2014-Sep-23 02:32N 47°44' W 003°21'0 0.0
2014-Sep-23 01:32N 47°44' W 003°21'0 0.0
2014-Sep-23 00:32N 47°44' W 003°21'0 0.0
2014-Sep-22 23:32N 47°44' W 003°21'0 0.0
2014-Sep-22 22:32N 47°44' W 003°21'0 0.0
2014-Sep-22 21:32N 47°44' W 003°21'0 0.5
2014-Sep-22 20:34N 47°43' W 003°22'5 5.4
2014-Sep-22 19:33N 47°40' W 003°29'5 4.9
2014-Sep-22 18:33N 47°40' W 003°36'  
2014-Sep-20 10:33N 48°20' W 004°35'6 5.6
2014-Sep-20 09:30N 48°23' W 004°27'0 0.0
2014-Sep-20 08:30N 48°23' W 004°27'0 0.0
2014-Sep-20 07:33N 48°23' W 004°27'0 0.0
2014-Sep-20 06:24N 48°23' W 004°27'0 0.0
2014-Sep-20 05:24N 48°23' W 004°27'0 0.1
2014-Sep-20 04:18N 48°23' W 004°27'  
Track history (hours):
 
Tides and Currents Weather Stations Pressure Air Temp Water Temp Dewpoint Dewpoint Depression Visibility Wind Speed Wind Dir Waves Ship Positions

Eships Agamid

Last reported at 2014-Sep-30 03:32 UTC. Time now 2014-Oct-01 10:21 UTC.
Position N 46°32' W 002°23'.

Length 128 m; draft 6 m.

Type: Tanker. MMSI: 236355000.

Date/timePositionNaut miles runAvg speedWind from/ knotsBaromVisibWave heightAir tempDewpointWater temp
2014-Sep-30 03:32N 46°32' W 002°23'1010.7
2014-Sep-30 02:33N 46°26' W 002°11'1110.9
2014-Sep-30 01:33N 46°19' W 001°59'1110.8
2014-Sep-30 00:33N 46°11' W 001°48'23 1.9
2014-Sep-29 12:11N 46°09' W 001°15'3 3.4
2014-Sep-29 11:25N 46°07' W 001°16'2411.8
2014-Sep-29 09:25N 46°12' W 001°49'1313.8
2014-Sep-29 08:30N 46°20' W 002°03'1313.8
2014-Sep-29 07:33N 46°29' W 002°17'9012.6
2014-Sep-29 00:28N 47°40' W 003°36'1010.8
2014-Sep-28 23:33N 47°43' W 003°22'1 1.1
2014-Sep-28 22:33N 47°44' W 003°21'0 0.0
2014-Sep-28 21:33N 47°44' W 003°21'0 0.0
2014-Sep-28 20:33N 47°44' W 003°21'0 0.0
2014-Sep-28 19:33N 47°44' W 003°21'0 0.0
2014-Sep-28 18:33N 47°44' W 003°21'0 0.0
2014-Sep-28 17:33N 47°44' W 003°21'0 0.0
2014-Sep-28 16:33N 47°44' W 003°21'0 0.0
2014-Sep-28 15:33N 47°44' W 003°21'0 0.0
2014-Sep-28 14:33N 47°44' W 003°21'0 0.0
2014-Sep-28 13:33N 47°44' W 003°21'0 0.0
2014-Sep-28 12:33N 47°44' W 003°21'0 0.0
2014-Sep-28 11:33N 47°44' W 003°21'0 0.0
2014-Sep-28 10:33N 47°44' W 003°21'0 0.0
2014-Sep-28 09:30N 47°44' W 003°21'0 0.0
2014-Sep-28 08:33N 47°44' W 003°21'0 0.0
2014-Sep-28 07:33N 47°44' W 003°21'0 0.0
2014-Sep-28 06:33N 47°44' W 003°21'3 2.7
2014-Sep-28 05:34N 47°41' W 003°23'2 1.9
2014-Sep-28 04:34N 47°40' W 003°25'0 0.0
2014-Sep-28 03:33N 47°40' W 003°25'0 0.0
2014-Sep-28 02:34N 47°40' W 003°25'0 0.0
2014-Sep-28 01:33N 47°40' W 003°25'0 0.0
2014-Sep-28 00:34N 47°40' W 003°25'0 0.0
2014-Sep-27 23:33N 47°40' W 003°25'0 0.0
2014-Sep-27 22:33N 47°40' W 003°25'0 0.0
2014-Sep-27 21:33N 47°40' W 003°25'0 0.0
2014-Sep-27 20:34N 47°40' W 003°25'3 3.2
2014-Sep-27 19:34N 47°40' W 003°30'61 5.6
2014-Sep-27 08:32N 47°18' W 002°05'  
2014-Sep-23 15:32N 47°44' W 003°21'0 0.0
2014-Sep-23 14:32N 47°44' W 003°21'0 0.0
2014-Sep-23 13:32N 47°44' W 003°21'0 0.0
2014-Sep-23 12:32N 47°44' W 003°21'0 0.0
2014-Sep-23 11:32N 47°44' W 003°21'0 0.0
2014-Sep-23 10:32N 47°44' W 003°21'0 0.0
2014-Sep-23 09:32N 47°44' W 003°21'0 0.0
2014-Sep-23 08:32N 47°44' W 003°21'0 0.0
2014-Sep-23 07:32N 47°44' W 003°21'0 0.0
2014-Sep-23 06:32N 47°44' W 003°21'0 0.0
2014-Sep-23 05:32N 47°44' W 003°21'0 0.0
2014-Sep-23 04:32N 47°44' W 003°21'0 0.0
2014-Sep-23 03:32N 47°44' W 003°21'0 0.0
2014-Sep-23 02:32N 47°44' W 003°21'0 0.0
2014-Sep-23 01:32N 47°44' W 003°21'0 0.0
2014-Sep-23 00:32N 47°44' W 003°21'0 0.0
2014-Sep-22 23:32N 47°44' W 003°21'0 0.0
2014-Sep-22 22:32N 47°44' W 003°21'0 0.0
2014-Sep-22 21:32N 47°44' W 003°21'0 0.5
2014-Sep-22 20:34N 47°43' W 003°22'5 5.4
2014-Sep-22 19:33N 47°40' W 003°29'5 4.9
2014-Sep-22 18:33N 47°40' W 003°36'  
2014-Sep-20 10:33N 48°20' W 004°35'6 5.6
2014-Sep-20 09:30N 48°23' W 004°27'0 0.0
2014-Sep-20 08:30N 48°23' W 004°27'0 0.0
2014-Sep-20 07:33N 48°23' W 004°27'0 0.0
2014-Sep-20 06:24N 48°23' W 004°27'0 0.0
2014-Sep-20 05:24N 48°23' W 004°27'0 0.1
2014-Sep-20 04:18N 48°23' W 004°27'  

Dump ship's entire track history